sensor_id;sensor_type;location;lat;lon;timestamp;P1;durP1;ratioP1;P2;durP2;ratioP2
13250;SDS011;6692;50.710;7.180;2024-03-02T00:01:23;3.03;;;2.77;;
13250;SDS011;6692;50.710;7.180;2024-03-02T00:03:24;2.30;;;2.10;;
13250;SDS011;6692;50.710;7.180;2024-03-02T00:05:25;3.23;;;2.63;;
13250;SDS011;6692;50.710;7.180;2024-03-02T00:07:26;2.60;;;2.40;;
13250;SDS011;6692;50.710;7.180;2024-03-02T00:09:27;2.53;;;2.33;;
13250;SDS011;6692;50.710;7.180;2024-03-02T00:11:27;2.60;;;2.40;;
13250;SDS011;6692;50.710;7.180;2024-03-02T00:13:29;2.87;;;2.47;;
13250;SDS011;6692;50.710;7.180;2024-03-02T00:17:46;2.60;;;2.30;;
13250;SDS011;6692;50.710;7.180;2024-03-02T00:19:47;2.50;;;2.30;;
13250;SDS011;6692;50.710;7.180;2024-03-02T00:21:47;2.30;;;2.10;;
13250;SDS011;6692;50.710;7.180;2024-03-02T00:23:48;2.63;;;2.30;;
13250;SDS011;6692;50.710;7.180;2024-03-02T00:25:50;2.33;;;2.13;;
13250;SDS011;6692;50.710;7.180;2024-03-02T00:27:50;2.67;;;2.23;;
13250;SDS011;6692;50.710;7.180;2024-03-02T00:29:51;2.40;;;2.20;;
13250;SDS011;6692;50.710;7.180;2024-03-02T00:31:52;2.07;;;1.90;;
13250;SDS011;6692;50.710;7.180;2024-03-02T00:33:52;2.17;;;2.03;;
13250;SDS011;6692;50.710;7.180;2024-03-02T00:35:53;2.47;;;2.27;;
13250;SDS011;6692;50.710;7.180;2024-03-02T00:37:54;2.37;;;2.17;;
13250;SDS011;6692;50.710;7.180;2024-03-02T00:39:54;3.63;;;2.30;;
13250;SDS011;6692;50.710;7.180;2024-03-02T00:41:55;2.33;;;2.13;;
13250;SDS011;6692;50.710;7.180;2024-03-02T00:43:58;6.23;;;2.30;;
13250;SDS011;6692;50.710;7.180;2024-03-02T00:46:02;2.40;;;2.03;;
13250;SDS011;6692;50.710;7.180;2024-03-02T00:48:03;2.33;;;2.13;;
13250;SDS011;6692;50.710;7.180;2024-03-02T00:50:05;2.27;;;2.07;;
13250;SDS011;6692;50.710;7.180;2024-03-02T00:52:06;2.60;;;1.93;;
13250;SDS011;6692;50.710;7.180;2024-03-02T00:54:07;2.47;;;2.27;;
13250;SDS011;6692;50.710;7.180;2024-03-02T00:56:09;2.30;;;2.10;;
13250;SDS011;6692;50.710;7.180;2024-03-02T00:58:08;2.40;;;2.20;;
13250;SDS011;6692;50.710;7.180;2024-03-02T01:00:09;2.13;;;2.03;;
13250;SDS011;6692;50.710;7.180;2024-03-02T01:02:11;2.23;;;2.03;;
13250;SDS011;6692;50.710;7.180;2024-03-02T01:04:11;2.10;;;1.90;;
13250;SDS011;6692;50.710;7.180;2024-03-02T01:06:12;2.27;;;2.07;;
13250;SDS011;6692;50.710;7.180;2024-03-02T01:08:13;2.10;;;1.90;;
13250;SDS011;6692;50.710;7.180;2024-03-02T01:10:13;2.23;;;2.10;;
13250;SDS011;6692;50.710;7.180;2024-03-02T01:12:14;2.30;;;2.10;;
13250;SDS011;6692;50.710;7.180;2024-03-02T01:14:15;2.40;;;2.00;;
13250;SDS011;6692;50.710;7.180;2024-03-02T01:16:16;2.40;;;2.20;;
13250;SDS011;6692;50.710;7.180;2024-03-02T01:18:17;2.30;;;2.10;;
13250;SDS011;6692;50.710;7.180;2024-03-02T01:20:18;2.43;;;2.23;;
13250;SDS011;6692;50.710;7.180;2024-03-02T01:22:18;2.20;;;2.10;;
13250;SDS011;6692;50.710;7.180;2024-03-02T01:24:19;2.00;;;1.90;;
13250;SDS011;6692;50.710;7.180;2024-03-02T01:26:20;2.43;;;2.20;;
13250;SDS011;6692;50.710;7.180;2024-03-02T01:28:20;2.50;;;2.30;;
13250;SDS011;6692;50.710;7.180;2024-03-02T01:30:23;2.20;;;2.00;;
13250;SDS011;6692;50.710;7.180;2024-03-02T01:32:23;2.33;;;2.13;;
13250;SDS011;6692;50.710;7.180;2024-03-02T01:34:24;2.20;;;2.00;;
13250;SDS011;6692;50.710;7.180;2024-03-02T01:36:25;2.50;;;2.30;;
13250;SDS011;6692;50.710;7.180;2024-03-02T01:38:26;2.07;;;1.93;;
13250;SDS011;6692;50.710;7.180;2024-03-02T01:40:27;2.30;;;2.10;;
13250;SDS011;6692;50.710;7.180;2024-03-02T01:42:27;2.10;;;2.00;;
13250;SDS011;6692;50.710;7.180;2024-03-02T01:44:28;2.33;;;2.10;;
13250;SDS011;6692;50.710;7.180;2024-03-02T01:46:29;2.47;;;2.20;;
13250;SDS011;6692;50.710;7.180;2024-03-02T01:48:29;1.90;;;1.80;;
13250;SDS011;6692;50.710;7.180;2024-03-02T01:50:31;2.23;;;1.93;;
13250;SDS011;6692;50.710;7.180;2024-03-02T01:52:31;2.53;;;2.33;;
13250;SDS011;6692;50.710;7.180;2024-03-02T01:54:32;2.30;;;2.10;;
13250;SDS011;6692;50.710;7.180;2024-03-02T01:56:33;2.50;;;2.30;;
13250;SDS011;6692;50.710;7.180;2024-03-02T01:58:34;2.23;;;2.03;;
13250;SDS011;6692;50.710;7.180;2024-03-02T02:00:34;2.27;;;2.07;;
13250;SDS011;6692;50.710;7.180;2024-03-02T02:02:35;2.67;;;2.20;;
13250;SDS011;6692;50.710;7.180;2024-03-02T02:04:36;2.10;;;1.90;;
13250;SDS011;6692;50.710;7.180;2024-03-02T02:06:37;2.17;;;1.97;;
13250;SDS011;6692;50.710;7.180;2024-03-02T02:08:38;2.17;;;2.00;;
13250;SDS011;6692;50.710;7.180;2024-03-02T02:10:38;2.10;;;2.00;;
13250;SDS011;6692;50.710;7.180;2024-03-02T02:12:39;2.20;;;2.00;;
13250;SDS011;6692;50.710;7.180;2024-03-02T02:14:40;2.13;;;2.00;;
13250;SDS011;6692;50.710;7.180;2024-03-02T02:16:41;2.33;;;2.23;;
13250;SDS011;6692;50.710;7.180;2024-03-02T02:18:42;1.90;;;1.80;;
13250;SDS011;6692;50.710;7.180;2024-03-02T02:20:42;2.23;;;2.03;;
13250;SDS011;6692;50.710;7.180;2024-03-02T02:24:50;3.60;;;2.40;;
13250;SDS011;6692;50.710;7.180;2024-03-02T02:26:50;2.13;;;1.93;;
13250;SDS011;6692;50.710;7.180;2024-03-02T02:28:51;2.40;;;2.20;;
13250;SDS011;6692;50.710;7.180;2024-03-02T02:30:54;2.50;;;2.30;;
13250;SDS011;6692;50.710;7.180;2024-03-02T02:32:53;2.60;;;2.30;;
13250;SDS011;6692;50.710;7.180;2024-03-02T02:34:54;2.83;;;2.00;;
13250;SDS011;6692;50.710;7.180;2024-03-02T02:36:55;2.43;;;2.23;;
13250;SDS011;6692;50.710;7.180;2024-03-02T02:38:55;3.07;;;2.40;;
13250;SDS011;6692;50.710;7.180;2024-03-02T02:40:56;2.50;;;2.30;;
13250;SDS011;6692;50.710;7.180;2024-03-02T02:42:57;2.30;;;2.10;;
13250;SDS011;6692;50.710;7.180;2024-03-02T02:44:57;2.87;;;2.57;;
13250;SDS011;6692;50.710;7.180;2024-03-02T02:46:58;2.40;;;2.20;;
13250;SDS011;6692;50.710;7.180;2024-03-02T02:48:59;2.60;;;2.40;;
13250;SDS011;6692;50.710;7.180;2024-03-02T02:51:00;2.47;;;2.27;;
13250;SDS011;6692;50.710;7.180;2024-03-02T02:53:02;2.50;;;2.30;;
13250;SDS011;6692;50.710;7.180;2024-03-02T02:55:03;2.90;;;2.60;;
13250;SDS011;6692;50.710;7.180;2024-03-02T02:57:04;2.50;;;2.30;;
13250;SDS011;6692;50.710;7.180;2024-03-02T02:59:05;2.40;;;2.20;;
13250;SDS011;6692;50.710;7.180;2024-03-02T03:01:05;2.53;;;2.33;;
13250;SDS011;6692;50.710;7.180;2024-03-02T03:03:07;2.83;;;2.30;;
13250;SDS011;6692;50.710;7.180;2024-03-02T03:05:09;2.47;;;2.30;;
13250;SDS011;6692;50.710;7.180;2024-03-02T03:07:09;2.70;;;2.07;;
13250;SDS011;6692;50.710;7.180;2024-03-02T03:09:10;2.70;;;2.50;;
13250;SDS011;6692;50.710;7.180;2024-03-02T03:11:11;2.60;;;2.40;;
13250;SDS011;6692;50.710;7.180;2024-03-02T03:13:12;2.40;;;2.20;;
13250;SDS011;6692;50.710;7.180;2024-03-02T03:15:13;3.53;;;2.40;;
13250;SDS011;6692;50.710;7.180;2024-03-02T03:17:14;3.03;;;2.47;;
13250;SDS011;6692;50.710;7.180;2024-03-02T03:19:15;3.03;;;2.73;;
13250;SDS011;6692;50.710;7.180;2024-03-02T03:21:16;2.97;;;2.77;;
13250;SDS011;6692;50.710;7.180;2024-03-02T03:23:17;2.30;;;2.10;;
13250;SDS011;6692;50.710;7.180;2024-03-02T03:25:17;3.00;;;2.10;;
13250;SDS011;6692;50.710;7.180;2024-03-02T03:27:18;2.67;;;2.47;;
13250;SDS011;6692;50.710;7.180;2024-03-02T03:29:20;2.70;;;2.50;;
13250;SDS011;6692;50.710;7.180;2024-03-02T03:31:20;2.60;;;2.40;;
13250;SDS011;6692;50.710;7.180;2024-03-02T03:33:21;3.13;;;2.83;;
13250;SDS011;6692;50.710;7.180;2024-03-02T03:35:22;2.80;;;2.60;;
13250;SDS011;6692;50.710;7.180;2024-03-02T03:37:23;2.73;;;2.53;;
13250;SDS011;6692;50.710;7.180;2024-03-02T03:39:24;3.13;;;2.80;;
13250;SDS011;6692;50.710;7.180;2024-03-02T03:41:24;3.97;;;2.80;;
13250;SDS011;6692;50.710;7.180;2024-03-02T03:43:25;3.10;;;2.63;;
13250;SDS011;6692;50.710;7.180;2024-03-02T03:45:26;2.67;;;2.40;;
13250;SDS011;6692;50.710;7.180;2024-03-02T03:47:26;4.27;;;2.87;;
13250;SDS011;6692;50.710;7.180;2024-03-02T03:49:27;3.23;;;2.93;;
13250;SDS011;6692;50.710;7.180;2024-03-02T03:51:28;3.33;;;2.90;;
13250;SDS011;6692;50.710;7.180;2024-03-02T03:53:28;3.10;;;2.80;;
13250;SDS011;6692;50.710;7.180;2024-03-02T03:55:29;2.90;;;2.70;;
13250;SDS011;6692;50.710;7.180;2024-03-02T03:57:30;2.60;;;2.40;;
13250;SDS011;6692;50.710;7.180;2024-03-02T03:59:31;3.10;;;2.80;;
13250;SDS011;6692;50.710;7.180;2024-03-02T04:01:32;3.00;;;2.80;;
13250;SDS011;6692;50.710;7.180;2024-03-02T04:03:33;3.53;;;2.97;;
13250;SDS011;6692;50.710;7.180;2024-03-02T04:05:35;3.20;;;2.90;;
13250;SDS011;6692;50.710;7.180;2024-03-02T04:07:36;2.77;;;2.57;;
13250;SDS011;6692;50.710;7.180;2024-03-02T04:09:36;3.17;;;2.90;;
13250;SDS011;6692;50.710;7.180;2024-03-02T04:11:37;3.00;;;2.70;;
13250;SDS011;6692;50.710;7.180;2024-03-02T04:13:38;2.97;;;2.67;;
13250;SDS011;6692;50.710;7.180;2024-03-02T04:15:39;2.77;;;2.57;;
13250;SDS011;6692;50.710;7.180;2024-03-02T04:17:39;2.77;;;2.57;;
13250;SDS011;6692;50.710;7.180;2024-03-02T04:19:41;3.07;;;2.73;;
13250;SDS011;6692;50.710;7.180;2024-03-02T04:21:42;2.80;;;2.60;;
13250;SDS011;6692;50.710;7.180;2024-03-02T04:23:42;3.23;;;2.90;;
13250;SDS011;6692;50.710;7.180;2024-03-02T04:25:43;2.80;;;2.60;;
13250;SDS011;6692;50.710;7.180;2024-03-02T04:27:44;3.13;;;2.80;;
13250;SDS011;6692;50.710;7.180;2024-03-02T04:29:44;3.03;;;2.80;;
13250;SDS011;6692;50.710;7.180;2024-03-02T04:31:45;3.40;;;2.77;;
13250;SDS011;6692;50.710;7.180;2024-03-02T04:33:47;4.33;;;2.97;;
13250;SDS011;6692;50.710;7.180;2024-03-02T04:35:47;4.57;;;3.17;;
13250;SDS011;6692;50.710;7.180;2024-03-02T04:37:48;3.33;;;3.03;;
13250;SDS011;6692;50.710;7.180;2024-03-02T04:39:49;3.33;;;3.03;;
13250;SDS011;6692;50.710;7.180;2024-03-02T04:41:50;3.03;;;2.77;;
13250;SDS011;6692;50.710;7.180;2024-03-02T04:43:52;3.60;;;2.97;;
13250;SDS011;6692;50.710;7.180;2024-03-02T04:45:52;3.30;;;3.00;;
13250;SDS011;6692;50.710;7.180;2024-03-02T04:47:54;3.50;;;2.80;;
13250;SDS011;6692;50.710;7.180;2024-03-02T04:49:54;3.00;;;2.80;;
13250;SDS011;6692;50.710;7.180;2024-03-02T04:51:55;3.00;;;2.70;;
13250;SDS011;6692;50.710;7.180;2024-03-02T04:53:56;4.00;;;3.00;;
13250;SDS011;6692;50.710;7.180;2024-03-02T04:55:56;3.60;;;3.30;;
13250;SDS011;6692;50.710;7.180;2024-03-02T04:57:59;3.50;;;3.20;;
13250;SDS011;6692;50.710;7.180;2024-03-02T05:00:00;3.03;;;2.73;;
13250;SDS011;6692;50.710;7.180;2024-03-02T05:02:00;3.10;;;2.63;;
13250;SDS011;6692;50.710;7.180;2024-03-02T05:04:02;3.23;;;2.93;;
13250;SDS011;6692;50.710;7.180;2024-03-02T05:06:03;3.20;;;2.70;;
13250;SDS011;6692;50.710;7.180;2024-03-02T05:08:04;3.00;;;2.60;;
13250;SDS011;6692;50.710;7.180;2024-03-02T05:10:05;3.40;;;3.10;;
13250;SDS011;6692;50.710;7.180;2024-03-02T05:12:07;3.57;;;2.80;;
13250;SDS011;6692;50.710;7.180;2024-03-02T05:14:13;2.93;;;2.73;;
13250;SDS011;6692;50.710;7.180;2024-03-02T05:16:14;3.10;;;2.80;;
13250;SDS011;6692;50.710;7.180;2024-03-02T05:18:15;3.03;;;2.83;;
13250;SDS011;6692;50.710;7.180;2024-03-02T05:20:16;3.20;;;2.90;;
13250;SDS011;6692;50.710;7.180;2024-03-02T05:22:16;2.83;;;2.63;;
13250;SDS011;6692;50.710;7.180;2024-03-02T05:24:17;2.90;;;2.70;;
13250;SDS011;6692;50.710;7.180;2024-03-02T05:26:18;3.33;;;2.80;;
13250;SDS011;6692;50.710;7.180;2024-03-02T05:28:18;3.97;;;3.07;;
13250;SDS011;6692;50.710;7.180;2024-03-02T05:30:19;2.77;;;2.57;;
13250;SDS011;6692;50.710;7.180;2024-03-02T05:32:20;2.90;;;2.70;;
13250;SDS011;6692;50.710;7.180;2024-03-02T05:34:21;3.33;;;2.83;;
13250;SDS011;6692;50.710;7.180;2024-03-02T05:36:22;3.10;;;2.80;;
13250;SDS011;6692;50.710;7.180;2024-03-02T05:38:22;3.17;;;2.87;;
13250;SDS011;6692;50.710;7.180;2024-03-02T05:40:23;3.53;;;2.80;;
13250;SDS011;6692;50.710;7.180;2024-03-02T05:42:24;3.00;;;2.70;;
13250;SDS011;6692;50.710;7.180;2024-03-02T05:44:25;3.27;;;2.97;;
13250;SDS011;6692;50.710;7.180;2024-03-02T05:46:25;3.30;;;3.00;;
13250;SDS011;6692;50.710;7.180;2024-03-02T05:48:26;2.90;;;2.70;;
13250;SDS011;6692;50.710;7.180;2024-03-02T05:50:27;3.50;;;2.63;;
13250;SDS011;6692;50.710;7.180;2024-03-02T05:52:28;3.20;;;2.90;;
13250;SDS011;6692;50.710;7.180;2024-03-02T05:54:29;3.23;;;2.93;;
13250;SDS011;6692;50.710;7.180;2024-03-02T05:56:29;2.73;;;2.53;;
13250;SDS011;6692;50.710;7.180;2024-03-02T05:58:30;3.33;;;3.03;;
13250;SDS011;6692;50.710;7.180;2024-03-02T06:00:50;3.23;;;2.93;;
13250;SDS011;6692;50.710;7.180;2024-03-02T06:02:51;3.90;;;2.97;;
13250;SDS011;6692;50.710;7.180;2024-03-02T06:04:53;3.10;;;2.80;;
13250;SDS011;6692;50.710;7.180;2024-03-02T06:06:52;3.23;;;2.93;;
13250;SDS011;6692;50.710;7.180;2024-03-02T06:08:53;2.83;;;2.63;;
13250;SDS011;6692;50.710;7.180;2024-03-02T06:10:54;3.47;;;2.90;;
13250;SDS011;6692;50.710;7.180;2024-03-02T06:12:55;3.30;;;3.00;;
13250;SDS011;6692;50.710;7.180;2024-03-02T06:14:56;3.10;;;2.80;;
13250;SDS011;6692;50.710;7.180;2024-03-02T06:16:58;3.60;;;2.93;;
13250;SDS011;6692;50.710;7.180;2024-03-02T06:18:59;2.87;;;2.60;;
13250;SDS011;6692;50.710;7.180;2024-03-02T06:21:00;3.67;;;3.37;;
13250;SDS011;6692;50.710;7.180;2024-03-02T06:23:00;2.97;;;2.67;;
13250;SDS011;6692;50.710;7.180;2024-03-02T06:25:01;3.43;;;2.90;;
13250;SDS011;6692;50.710;7.180;2024-03-02T06:27:02;3.40;;;3.10;;
13250;SDS011;6692;50.710;7.180;2024-03-02T06:29:03;3.07;;;2.50;;
13250;SDS011;6692;50.710;7.180;2024-03-02T06:31:04;3.40;;;2.83;;
13250;SDS011;6692;50.710;7.180;2024-03-02T06:33:05;3.10;;;2.87;;
13250;SDS011;6692;50.710;7.180;2024-03-02T06:35:06;2.80;;;2.60;;
13250;SDS011;6692;50.710;7.180;2024-03-02T06:37:07;3.13;;;2.83;;
13250;SDS011;6692;50.710;7.180;2024-03-02T06:39:08;2.90;;;2.70;;
13250;SDS011;6692;50.710;7.180;2024-03-02T06:41:09;2.60;;;2.40;;
13250;SDS011;6692;50.710;7.180;2024-03-02T06:43:09;2.90;;;2.67;;
13250;SDS011;6692;50.710;7.180;2024-03-02T06:45:10;2.80;;;2.60;;
13250;SDS011;6692;50.710;7.180;2024-03-02T06:47:11;3.20;;;2.90;;
13250;SDS011;6692;50.710;7.180;2024-03-02T06:49:12;3.40;;;2.80;;
13250;SDS011;6692;50.710;7.180;2024-03-02T06:51:13;4.10;;;3.03;;
13250;SDS011;6692;50.710;7.180;2024-03-02T06:53:13;4.87;;;2.80;;
13250;SDS011;6692;50.710;7.180;2024-03-02T06:55:14;2.73;;;2.50;;
13250;SDS011;6692;50.710;7.180;2024-03-02T06:57:15;3.20;;;2.90;;
13250;SDS011;6692;50.710;7.180;2024-03-02T06:59:15;3.50;;;3.20;;
13250;SDS011;6692;50.710;7.180;2024-03-02T07:01:16;3.50;;;2.97;;
13250;SDS011;6692;50.710;7.180;2024-03-02T07:03:17;4.33;;;2.80;;
13250;SDS011;6692;50.710;7.180;2024-03-02T07:05:17;3.20;;;2.90;;
13250;SDS011;6692;50.710;7.180;2024-03-02T07:07:18;2.70;;;2.50;;
13250;SDS011;6692;50.710;7.180;2024-03-02T07:09:19;3.27;;;2.77;;
13250;SDS011;6692;50.710;7.180;2024-03-02T07:11:20;3.03;;;2.83;;
13250;SDS011;6692;50.710;7.180;2024-03-02T07:13:21;3.10;;;2.80;;
13250;SDS011;6692;50.710;7.180;2024-03-02T07:15:22;3.40;;;3.10;;
13250;SDS011;6692;50.710;7.180;2024-03-02T07:17:25;3.00;;;2.70;;
13250;SDS011;6692;50.710;7.180;2024-03-02T07:19:26;3.20;;;2.70;;
13250;SDS011;6692;50.710;7.180;2024-03-02T07:21:27;2.57;;;2.37;;
13250;SDS011;6692;50.710;7.180;2024-03-02T07:23:28;2.97;;;2.67;;
13250;SDS011;6692;50.710;7.180;2024-03-02T07:25:29;3.10;;;2.80;;
13250;SDS011;6692;50.710;7.180;2024-03-02T07:27:30;2.77;;;2.57;;
13250;SDS011;6692;50.710;7.180;2024-03-02T07:29:31;3.03;;;2.73;;
13250;SDS011;6692;50.710;7.180;2024-03-02T07:31:31;4.30;;;2.80;;
13250;SDS011;6692;50.710;7.180;2024-03-02T07:33:32;2.80;;;2.60;;
13250;SDS011;6692;50.710;7.180;2024-03-02T07:35:33;3.20;;;2.90;;
13250;SDS011;6692;50.710;7.180;2024-03-02T07:37:33;3.17;;;2.87;;
13250;SDS011;6692;50.710;7.180;2024-03-02T07:39:35;4.23;;;3.17;;
13250;SDS011;6692;50.710;7.180;2024-03-02T07:41:35;3.20;;;3.00;;
13250;SDS011;6692;50.710;7.180;2024-03-02T07:43:36;3.73;;;3.03;;
13250;SDS011;6692;50.710;7.180;2024-03-02T07:45:37;3.50;;;3.20;;
13250;SDS011;6692;50.710;7.180;2024-03-02T07:47:37;3.40;;;3.07;;
13250;SDS011;6692;50.710;7.180;2024-03-02T07:49:38;3.30;;;3.00;;
13250;SDS011;6692;50.710;7.180;2024-03-02T07:51:39;3.03;;;2.73;;
13250;SDS011;6692;50.710;7.180;2024-03-02T07:53:39;3.37;;;2.97;;
13250;SDS011;6692;50.710;7.180;2024-03-02T07:55:40;3.40;;;3.10;;
13250;SDS011;6692;50.710;7.180;2024-03-02T07:57:41;4.33;;;2.83;;
13250;SDS011;6692;50.710;7.180;2024-03-02T07:59:41;3.50;;;3.20;;
13250;SDS011;6692;50.710;7.180;2024-03-02T08:01:43;3.53;;;2.97;;
13250;SDS011;6692;50.710;7.180;2024-03-02T08:03:43;3.40;;;3.10;;
13250;SDS011;6692;50.710;7.180;2024-03-02T08:05:48;3.80;;;3.03;;
13250;SDS011;6692;50.710;7.180;2024-03-02T08:07:49;3.10;;;2.90;;
13250;SDS011;6692;50.710;7.180;2024-03-02T08:09:50;4.47;;;2.90;;
13250;SDS011;6692;50.710;7.180;2024-03-02T08:11:50;3.53;;;3.23;;
13250;SDS011;6692;50.710;7.180;2024-03-02T08:13:51;3.47;;;3.10;;
13250;SDS011;6692;50.710;7.180;2024-03-02T08:15:52;3.40;;;3.07;;
13250;SDS011;6692;50.710;7.180;2024-03-02T08:17:53;3.33;;;3.03;;
13250;SDS011;6692;50.710;7.180;2024-03-02T08:19:53;3.80;;;3.10;;
13250;SDS011;6692;50.710;7.180;2024-03-02T08:21:54;4.40;;;3.60;;
13250;SDS011;6692;50.710;7.180;2024-03-02T08:23:55;4.30;;;3.90;;
13250;SDS011;6692;50.710;7.180;2024-03-02T08:25:56;3.70;;;3.40;;
13250;SDS011;6692;50.710;7.180;2024-03-02T08:27:57;3.70;;;3.40;;
13250;SDS011;6692;50.710;7.180;2024-03-02T08:29:57;3.50;;;3.20;;
13250;SDS011;6692;50.710;7.180;2024-03-02T08:31:58;3.20;;;2.90;;
13250;SDS011;6692;50.710;7.180;2024-03-02T08:34:00;3.47;;;3.17;;
13250;SDS011;6692;50.710;7.180;2024-03-02T08:36:00;4.60;;;3.50;;
13250;SDS011;6692;50.710;7.180;2024-03-02T08:38:02;3.57;;;3.27;;
13250;SDS011;6692;50.710;7.180;2024-03-02T08:40:03;3.47;;;3.10;;
13250;SDS011;6692;50.710;7.180;2024-03-02T08:42:04;4.27;;;3.47;;
13250;SDS011;6692;50.710;7.180;2024-03-02T08:44:05;4.10;;;3.20;;
13250;SDS011;6692;50.710;7.180;2024-03-02T08:46:06;3.07;;;2.77;;
13250;SDS011;6692;50.710;7.180;2024-03-02T08:48:08;3.57;;;3.27;;
13250;SDS011;6692;50.710;7.180;2024-03-02T08:50:08;4.27;;;3.20;;
13250;SDS011;6692;50.710;7.180;2024-03-02T08:52:09;3.77;;;3.47;;
13250;SDS011;6692;50.710;7.180;2024-03-02T08:54:10;4.97;;;3.23;;
13250;SDS011;6692;50.710;7.180;2024-03-02T08:56:10;3.40;;;3.10;;
13250;SDS011;6692;50.710;7.180;2024-03-02T08:58:11;5.00;;;3.00;;
13250;SDS011;6692;50.710;7.180;2024-03-02T09:00:12;3.57;;;3.27;;
13250;SDS011;6692;50.710;7.180;2024-03-02T09:02:13;3.37;;;3.07;;
13250;SDS011;6692;50.710;7.180;2024-03-02T09:04:13;3.30;;;2.93;;
13250;SDS011;6692;50.710;7.180;2024-03-02T09:06:14;4.13;;;2.90;;
13250;SDS011;6692;50.710;7.180;2024-03-02T09:08:15;3.57;;;2.70;;
13250;SDS011;6692;50.710;7.180;2024-03-02T09:10:16;3.43;;;3.13;;
13250;SDS011;6692;50.710;7.180;2024-03-02T09:12:16;3.50;;;3.20;;
13250;SDS011;6692;50.710;7.180;2024-03-02T09:14:18;3.20;;;2.90;;
13250;SDS011;6692;50.710;7.180;2024-03-02T09:16:18;4.10;;;3.20;;
13250;SDS011;6692;50.710;7.180;2024-03-02T09:18:19;3.07;;;2.83;;
13250;SDS011;6692;50.710;7.180;2024-03-02T09:20:20;3.50;;;3.00;;
13250;SDS011;6692;50.710;7.180;2024-03-02T09:22:21;3.00;;;2.70;;
13250;SDS011;6692;50.710;7.180;2024-03-02T09:24:21;3.50;;;3.20;;
13250;SDS011;6692;50.710;7.180;2024-03-02T09:26:22;4.83;;;2.90;;
13250;SDS011;6692;50.710;7.180;2024-03-02T09:28:23;3.40;;;3.10;;
13250;SDS011;6692;50.710;7.180;2024-03-02T09:30:23;3.50;;;3.17;;
13250;SDS011;6692;50.710;7.180;2024-03-02T09:32:24;3.50;;;3.20;;
13250;SDS011;6692;50.710;7.180;2024-03-02T09:34:25;3.23;;;2.93;;
13250;SDS011;6692;50.710;7.180;2024-03-02T09:36:26;3.00;;;2.80;;
13250;SDS011;6692;50.710;7.180;2024-03-02T09:38:27;4.93;;;3.37;;
13250;SDS011;6692;50.710;7.180;2024-03-02T09:40:27;3.77;;;3.47;;
13250;SDS011;6692;50.710;7.180;2024-03-02T09:42:29;3.47;;;3.17;;
13250;SDS011;6692;50.710;7.180;2024-03-02T09:44:29;3.33;;;3.03;;
13250;SDS011;6692;50.710;7.180;2024-03-02T09:46:30;3.63;;;3.10;;
13250;SDS011;6692;50.710;7.180;2024-03-02T09:48:31;4.27;;;3.40;;
13250;SDS011;6692;50.710;7.180;2024-03-02T09:50:32;3.30;;;3.00;;
13250;SDS011;6692;50.710;7.180;2024-03-02T09:52:32;3.37;;;3.07;;
13250;SDS011;6692;50.710;7.180;2024-03-02T09:54:33;3.83;;;3.17;;
13250;SDS011;6692;50.710;7.180;2024-03-02T09:56:33;3.93;;;3.20;;
13250;SDS011;6692;50.710;7.180;2024-03-02T09:58:34;3.50;;;3.20;;
13250;SDS011;6692;50.710;7.180;2024-03-02T10:00:35;4.60;;;3.30;;
13250;SDS011;6692;50.710;7.180;2024-03-02T10:02:36;3.87;;;3.50;;
13250;SDS011;6692;50.710;7.180;2024-03-02T10:04:36;4.77;;;3.60;;
13250;SDS011;6692;50.710;7.180;2024-03-02T10:06:37;3.83;;;3.43;;
13250;SDS011;6692;50.710;7.180;2024-03-02T10:08:43;3.87;;;3.47;;
13250;SDS011;6692;50.710;7.180;2024-03-02T10:10:43;3.77;;;3.37;;
13250;SDS011;6692;50.710;7.180;2024-03-02T10:12:44;3.43;;;3.13;;
13250;SDS011;6692;50.710;7.180;2024-03-02T10:14:45;3.83;;;3.47;;
13250;SDS011;6692;50.710;7.180;2024-03-02T10:16:46;3.47;;;3.17;;
13250;SDS011;6692;50.710;7.180;2024-03-02T10:18:47;3.60;;;3.30;;
13250;SDS011;6692;50.710;7.180;2024-03-02T10:20:48;5.63;;;3.60;;
13250;SDS011;6692;50.710;7.180;2024-03-02T10:22:49;3.87;;;3.40;;
13250;SDS011;6692;50.710;7.180;2024-03-02T10:24:50;3.40;;;3.10;;
13250;SDS011;6692;50.710;7.180;2024-03-02T10:26:51;3.50;;;3.20;;
13250;SDS011;6692;50.710;7.180;2024-03-02T10:28:52;4.30;;;3.43;;
13250;SDS011;6692;50.710;7.180;2024-03-02T10:30:53;3.60;;;3.30;;
13250;SDS011;6692;50.710;7.180;2024-03-02T10:32:54;4.07;;;3.67;;
13250;SDS011;6692;50.710;7.180;2024-03-02T10:34:55;3.07;;;2.80;;
13250;SDS011;6692;50.710;7.180;2024-03-02T10:36:57;3.00;;;2.70;;
13250;SDS011;6692;50.710;7.180;2024-03-02T10:38:58;3.70;;;3.40;;
13250;SDS011;6692;50.710;7.180;2024-03-02T10:40:58;3.37;;;3.07;;
13250;SDS011;6692;50.710;7.180;2024-03-02T10:42:59;3.50;;;3.20;;
13250;SDS011;6692;50.710;7.180;2024-03-02T10:45:00;3.30;;;3.03;;
13250;SDS011;6692;50.710;7.180;2024-03-02T10:47:02;3.60;;;3.30;;
13250;SDS011;6692;50.710;7.180;2024-03-02T10:49:03;3.70;;;3.40;;
13250;SDS011;6692;50.710;7.180;2024-03-02T10:51:02;3.30;;;3.00;;
13250;SDS011;6692;50.710;7.180;2024-03-02T10:53:04;4.30;;;3.30;;
13250;SDS011;6692;50.710;7.180;2024-03-02T10:55:07;4.43;;;2.90;;
13250;SDS011;6692;50.710;7.180;2024-03-02T10:57:08;3.20;;;2.93;;
13250;SDS011;6692;50.710;7.180;2024-03-02T10:59:16;3.77;;;3.00;;
13250;SDS011;6692;50.710;7.180;2024-03-02T11:01:18;3.57;;;3.27;;
13250;SDS011;6692;50.710;7.180;2024-03-02T11:03:19;3.73;;;3.40;;
13250;SDS011;6692;50.710;7.180;2024-03-02T11:05:23;3.63;;;2.83;;
13250;SDS011;6692;50.710;7.180;2024-03-02T11:07:31;3.43;;;2.87;;
13250;SDS011;6692;50.710;7.180;2024-03-02T11:09:33;3.30;;;3.00;;
13250;SDS011;6692;50.710;7.180;2024-03-02T11:11:35;3.27;;;2.97;;
13250;SDS011;6692;50.710;7.180;2024-03-02T11:13:34;2.90;;;2.70;;
13250;SDS011;6692;50.710;7.180;2024-03-02T11:15:35;3.10;;;2.77;;
13250;SDS011;6692;50.710;7.180;2024-03-02T11:17:37;2.80;;;2.60;;
13250;SDS011;6692;50.710;7.180;2024-03-02T11:19:38;3.20;;;2.90;;
13250;SDS011;6692;50.710;7.180;2024-03-02T11:21:39;3.70;;;3.10;;
13250;SDS011;6692;50.710;7.180;2024-03-02T11:23:39;3.33;;;2.70;;
13250;SDS011;6692;50.710;7.180;2024-03-02T11:25:40;2.80;;;2.50;;
13250;SDS011;6692;50.710;7.180;2024-03-02T11:28:00;3.33;;;2.70;;
13250;SDS011;6692;50.710;7.180;2024-03-02T11:30:00;3.00;;;2.70;;
13250;SDS011;6692;50.710;7.180;2024-03-02T11:32:01;2.53;;;2.33;;
13250;SDS011;6692;50.710;7.180;2024-03-02T11:34:16;2.83;;;2.57;;
13250;SDS011;6692;50.710;7.180;2024-03-02T11:36:02;2.50;;;2.30;;
13250;SDS011;6692;50.710;7.180;2024-03-02T11:38:04;2.63;;;2.30;;
13250;SDS011;6692;50.710;7.180;2024-03-02T11:40:05;2.50;;;2.30;;
13250;SDS011;6692;50.710;7.180;2024-03-02T11:42:07;3.27;;;2.10;;
13250;SDS011;6692;50.710;7.180;2024-03-02T11:44:07;2.60;;;1.93;;
13250;SDS011;6692;50.710;7.180;2024-03-02T11:46:08;2.40;;;2.10;;
13250;SDS011;6692;50.710;7.180;2024-03-02T11:48:10;2.77;;;2.37;;
13250;SDS011;6692;50.710;7.180;2024-03-02T11:50:10;2.20;;;2.00;;
13250;SDS011;6692;50.710;7.180;2024-03-02T11:52:13;2.30;;;2.10;;
13250;SDS011;6692;50.710;7.180;2024-03-02T11:54:13;2.90;;;2.20;;
13250;SDS011;6692;50.710;7.180;2024-03-02T11:56:14;2.70;;;2.17;;
13250;SDS011;6692;50.710;7.180;2024-03-02T11:58:15;2.17;;;2.07;;
13250;SDS011;6692;50.710;7.180;2024-03-02T12:00:17;2.33;;;2.13;;
13250;SDS011;6692;50.710;7.180;2024-03-02T12:02:19;2.50;;;2.30;;
13250;SDS011;6692;50.710;7.180;2024-03-02T12:04:21;2.57;;;2.10;;
13250;SDS011;6692;50.710;7.180;2024-03-02T12:06:21;4.30;;;2.40;;
13250;SDS011;6692;50.710;7.180;2024-03-02T12:08:22;2.30;;;2.10;;
13250;SDS011;6692;50.710;7.180;2024-03-02T12:10:23;2.20;;;2.00;;
13250;SDS011;6692;50.710;7.180;2024-03-02T12:12:24;2.33;;;2.13;;
13250;SDS011;6692;50.710;7.180;2024-03-02T12:14:25;2.37;;;2.17;;
13250;SDS011;6692;50.710;7.180;2024-03-02T12:16:26;2.13;;;1.93;;
13250;SDS011;6692;50.710;7.180;2024-03-02T12:18:26;2.63;;;2.10;;
13250;SDS011;6692;50.710;7.180;2024-03-02T12:20:28;2.30;;;2.10;;
13250;SDS011;6692;50.710;7.180;2024-03-02T12:22:28;2.50;;;2.30;;
13250;SDS011;6692;50.710;7.180;2024-03-02T12:24:29;2.37;;;2.17;;